createdAt,value
2018-05-07T00:02:16.279Z,2.03
2018-05-07T00:04:43.912Z,1.53
2018-05-07T00:07:11.784Z,2.07
2018-05-07T00:09:39.402Z,1.83
2018-05-07T00:12:07.023Z,1.70
2018-05-07T00:14:35.426Z,1.60
2018-05-07T00:17:03.046Z,2.50
2018-05-07T00:19:30.958Z,1.20
2018-05-07T00:21:58.547Z,1.43
2018-05-07T00:24:26.175Z,2.13
2018-05-07T00:26:53.839Z,2.30
2018-05-07T00:29:21.419Z,4.90
2018-05-07T00:31:49.039Z,3.13
2018-05-07T00:34:16.662Z,1.37
2018-05-07T00:36:44.279Z,2.83
2018-05-07T00:39:11.904Z,3.60
2018-05-07T00:41:39.527Z,1.83
2018-05-07T00:44:07.147Z,1.57
2018-05-07T00:46:34.779Z,2.47
2018-05-07T00:49:02.402Z,1.73
2018-05-07T00:51:30.009Z,1.80
2018-05-07T00:53:57.619Z,1.47
2018-05-07T00:56:25.239Z,1.87
2018-05-07T00:58:53.632Z,1.90
2018-05-07T01:01:21.250Z,1.30
2018-05-07T01:03:48.923Z,1.30
2018-05-07T01:06:16.546Z,2.17
2018-05-07T01:08:44.167Z,1.70
2018-05-07T01:11:11.791Z,2.30
2018-05-07T01:13:39.411Z,2.17
2018-05-07T01:16:07.034Z,1.77
2018-05-07T01:18:36.762Z,1.53
2018-05-07T01:21:04.391Z,3.17
2018-05-07T01:23:32.011Z,2.30
2018-05-07T01:25:59.638Z,2.23
2018-05-07T01:28:27.259Z,3.33
2018-05-07T01:30:54.904Z,2.87
2018-05-07T01:33:22.527Z,3.53
2018-05-07T01:35:50.147Z,2.43
2018-05-07T01:38:17.771Z,2.40
2018-05-07T01:40:45.383Z,4.63
2018-05-07T01:43:13.771Z,2.00
2018-05-07T01:45:41.398Z,2.10
2018-05-07T01:48:09.011Z,3.20
2018-05-07T01:50:36.632Z,2.20
2018-05-07T01:53:04.263Z,3.23
2018-05-07T01:55:31.879Z,2.73
2018-05-07T01:57:59.498Z,2.90
2018-05-07T02:00:27.134Z,2.43
2018-05-07T02:02:54.782Z,3.03
2018-05-07T02:05:22.403Z,2.60
2018-05-07T02:07:50.029Z,2.90
2018-05-07T02:10:18.412Z,2.10
2018-05-07T02:12:46.038Z,2.47
2018-05-07T02:15:13.672Z,2.20
2018-05-07T02:17:41.291Z,2.40
2018-05-07T02:20:08.898Z,2.03
2018-05-07T02:22:36.524Z,2.40
2018-05-07T02:25:04.150Z,3.03
2018-05-07T02:27:31.772Z,2.70
2018-05-07T02:29:59.382Z,2.77
2018-05-07T02:32:27.007Z,3.07
2018-05-07T02:34:55.390Z,1.83
2018-05-07T02:37:23.008Z,2.63
2018-05-07T02:39:50.635Z,1.93
2018-05-07T02:42:18.367Z,2.33
2018-05-07T02:44:46.756Z,3.23
2018-05-07T02:47:14.375Z,2.90
2018-05-07T02:49:42.010Z,2.27
2018-05-07T02:52:09.630Z,2.83
2018-05-07T02:54:37.267Z,2.70
2018-05-07T02:59:52.899Z,4.50
2018-05-07T03:02:20.520Z,2.57
2018-05-07T03:04:48.138Z,3.17
2018-05-07T03:07:15.758Z,2.53
2018-05-07T03:09:43.375Z,2.80
2018-05-07T03:12:11.002Z,2.80
2018-05-07T03:14:38.621Z,2.80
2018-05-07T03:17:06.239Z,1.80
2018-05-07T03:19:33.865Z,2.90
2018-05-07T03:22:01.486Z,1.77
2018-05-07T03:24:29.107Z,2.30
2018-05-07T03:26:56.718Z,3.17
2018-05-07T03:29:24.338Z,2.63
2018-05-07T03:31:51.967Z,2.63
2018-05-07T03:34:19.587Z,2.67
2018-05-07T03:36:47.215Z,1.53
2018-05-07T03:39:15.683Z,3.97
2018-05-07T03:41:43.222Z,2.20
2018-05-07T03:44:10.846Z,1.70
2018-05-07T03:46:38.475Z,1.77
2018-05-07T03:49:06.095Z,3.50
2018-05-07T03:51:33.718Z,3.17
2018-05-07T03:54:01.340Z,2.97
2018-05-07T03:56:28.958Z,2.03
2018-05-07T03:58:56.568Z,4.77
2018-05-07T04:01:29.483Z,2.17
2018-05-07T04:03:57.122Z,3.90
2018-05-07T04:06:26.056Z,2.33
2018-05-07T04:08:53.673Z,2.43
2018-05-07T04:11:32.630Z,3.07
2018-05-07T04:14:00.291Z,2.27
2018-05-07T04:16:39.655Z,2.77
2018-05-07T04:19:19.149Z,3.07
2018-05-07T04:21:58.487Z,2.10
2018-05-07T04:24:26.105Z,2.07
2018-05-07T04:26:53.723Z,2.53
2018-05-07T04:29:21.343Z,2.33
2018-05-07T04:31:48.954Z,3.10
2018-05-07T04:34:21.447Z,2.40
2018-05-07T04:36:49.833Z,4.33
2018-05-07T04:39:17.454Z,2.57
2018-05-07T04:41:45.083Z,3.40
2018-05-07T04:44:13.045Z,3.00
2018-05-07T04:46:41.428Z,2.07
2018-05-07T04:49:09.168Z,2.63
2018-05-07T04:51:36.743Z,3.90
2018-05-07T04:54:04.364Z,2.73
2018-05-07T04:56:31.979Z,3.17
2018-05-07T04:58:59.608Z,4.17
2018-05-07T05:01:27.218Z,4.27
2018-05-07T05:03:54.843Z,3.00
2018-05-07T05:06:22.463Z,2.97
2018-05-07T05:08:50.079Z,2.80
2018-05-07T05:11:17.711Z,3.90
2018-05-07T05:13:45.327Z,3.20
2018-05-07T05:16:12.943Z,4.30
2018-05-07T05:18:40.571Z,3.40
2018-05-07T05:21:08.307Z,2.37
2018-05-07T05:23:35.811Z,3.30
2018-05-07T05:26:03.519Z,3.57
2018-05-07T05:28:31.050Z,2.73
2018-05-07T05:30:58.667Z,2.23
2018-05-07T05:33:26.287Z,2.90
2018-05-07T05:35:54.676Z,3.20
2018-05-07T05:38:22.299Z,5.83
2018-05-07T05:40:49.916Z,6.10
2018-05-07T05:43:17.534Z,3.73
2018-05-07T05:45:45.144Z,3.70
2018-05-07T05:48:12.767Z,2.50
2018-05-07T05:50:40.392Z,3.13
2018-05-07T05:53:08.007Z,3.60
2018-05-07T05:55:35.620Z,2.73
2018-05-07T05:58:03.244Z,3.20
2018-05-07T06:00:30.863Z,2.67
2018-05-07T06:02:58.474Z,2.60
2018-05-07T06:05:26.103Z,2.40
2018-05-07T06:07:53.727Z,2.47
2018-05-07T06:10:21.383Z,2.77
2018-05-07T06:12:49.008Z,2.93
2018-05-07T06:15:16.626Z,2.20
2018-05-07T06:17:45.007Z,2.27
2018-05-07T06:20:12.632Z,2.80
2018-05-07T06:22:40.260Z,1.83
2018-05-07T06:25:07.875Z,2.10
2018-05-07T06:27:35.491Z,3.53
2018-05-07T06:30:03.103Z,2.77
2018-05-07T06:32:30.723Z,2.97
2018-05-07T06:34:58.334Z,1.93
2018-05-07T06:37:25.959Z,2.20
2018-05-07T06:39:53.572Z,2.00
2018-05-07T06:42:21.571Z,1.93
2018-05-07T06:44:49.961Z,3.77
2018-05-07T06:47:17.583Z,2.20
2018-05-07T06:49:45.208Z,2.13
2018-05-07T06:52:12.902Z,2.80
2018-05-07T06:54:40.451Z,2.13
2018-05-07T06:57:08.067Z,2.50
2018-05-07T06:59:35.694Z,1.83
2018-05-07T07:02:03.338Z,1.77
2018-05-07T07:04:31.726Z,2.10
2018-05-07T07:06:59.345Z,2.50
2018-05-07T07:09:26.963Z,1.97
2018-05-07T07:11:54.583Z,2.13
2018-05-07T07:14:22.971Z,2.60
2018-05-07T07:16:50.595Z,2.00
2018-05-07T07:19:18.222Z,1.90
2018-05-07T07:21:46.823Z,4.37
2018-05-07T07:24:14.394Z,2.00
2018-05-07T07:26:42.015Z,2.50
2018-05-07T07:29:09.639Z,2.03
2018-05-07T07:31:37.254Z,2.00
2018-05-07T07:34:06.671Z,2.40
2018-05-07T07:36:34.255Z,2.20
2018-05-07T07:39:01.879Z,3.90
2018-05-07T07:41:29.566Z,1.53
2018-05-07T07:43:57.951Z,2.20
2018-05-07T07:46:25.580Z,2.53
2018-05-07T07:48:53.203Z,2.63
2018-05-07T07:51:20.834Z,2.77
2018-05-07T07:53:48.544Z,2.30
2018-05-07T07:56:16.092Z,3.13
2018-05-07T07:58:43.972Z,1.97
2018-05-07T08:01:11.596Z,2.07
2018-05-07T08:03:39.247Z,2.10
2018-05-07T08:06:06.859Z,1.90
2018-05-07T08:08:34.479Z,2.20
2018-05-07T08:11:02.095Z,4.47
2018-05-07T08:13:29.719Z,2.37
2018-05-07T08:15:57.339Z,1.53
2018-05-07T08:18:25.026Z,2.20
2018-05-07T08:20:52.575Z,1.93
2018-05-07T08:23:20.194Z,2.10
2018-05-07T08:25:49.792Z,2.43
2018-05-07T08:28:17.412Z,2.50
2018-05-07T08:30:45.027Z,1.33
2018-05-07T08:33:12.638Z,1.80
2018-05-07T08:35:40.262Z,2.30
2018-05-07T08:38:07.882Z,3.30
2018-05-07T08:40:35.507Z,1.40
2018-05-07T08:43:03.129Z,2.10
2018-05-07T08:45:30.751Z,3.83
2018-05-07T08:47:59.129Z,1.97
2018-05-07T08:50:26.791Z,2.10
2018-05-07T08:52:54.461Z,1.93
2018-05-07T08:55:22.759Z,2.70
2018-05-07T08:57:50.375Z,3.93
2018-05-07T09:00:18.172Z,1.93
2018-05-07T09:02:45.787Z,1.93
2018-05-07T09:05:13.411Z,2.00
2018-05-07T09:07:41.035Z,1.80
2018-05-07T09:10:08.658Z,1.50
2018-05-07T09:12:36.276Z,2.50
2018-05-07T09:15:03.886Z,1.80
2018-05-07T09:17:31.563Z,2.47
2018-05-07T09:19:59.151Z,2.00
2018-05-07T09:22:26.770Z,1.70
2018-05-07T09:24:54.494Z,1.93
2018-05-07T09:27:22.019Z,2.90
2018-05-07T09:29:49.644Z,3.70
2018-05-07T09:32:17.255Z,1.63
2018-05-07T09:34:44.875Z,1.40
2018-05-07T09:37:12.501Z,2.57
2018-05-07T09:39:40.123Z,2.17
2018-05-07T09:42:08.512Z,1.70
2018-05-07T09:44:36.142Z,1.87
2018-05-07T09:47:03.766Z,2.67
2018-05-07T09:49:31.390Z,2.30
2018-05-07T09:51:59.003Z,1.70
2018-05-07T09:54:26.627Z,1.53
2018-05-07T09:56:54.292Z,1.63
2018-05-07T09:59:21.884Z,1.47
2018-05-07T10:01:49.528Z,1.87
2018-05-07T10:04:17.143Z,1.60
2018-05-07T10:06:44.782Z,2.27
2018-05-07T10:09:12.410Z,1.50
2018-05-07T10:11:40.037Z,1.60
2018-05-07T10:14:08.056Z,1.50
2018-05-07T10:16:35.695Z,1.37
2018-05-07T10:19:03.319Z,1.60
2018-05-07T10:21:31.713Z,1.90
2018-05-07T10:23:59.331Z,1.63
2018-05-07T10:26:26.950Z,1.53
2018-05-07T10:28:54.572Z,1.67
2018-05-07T10:31:22.188Z,1.30
2018-05-07T10:33:49.811Z,1.47
2018-05-07T10:36:17.443Z,1.60
2018-05-07T10:38:45.071Z,1.73
2018-05-07T10:41:12.696Z,1.70
2018-05-07T10:43:40.322Z,1.43
2018-05-07T10:46:07.956Z,2.90
2018-05-07T10:48:35.583Z,1.63
2018-05-07T10:51:03.203Z,1.60
2018-05-07T10:53:30.819Z,1.67
2018-05-07T10:55:58.444Z,1.70
2018-05-07T10:58:26.063Z,1.50
2018-05-07T11:00:53.683Z,1.57
2018-05-07T11:03:21.332Z,1.57
2018-05-07T11:05:48.952Z,1.57
2018-05-07T11:08:16.587Z,1.40
2018-05-07T11:10:44.195Z,1.73
2018-05-07T11:13:11.816Z,3.83
2018-05-07T11:15:39.443Z,1.63
2018-05-07T11:18:07.076Z,1.80
2018-05-07T11:20:34.707Z,2.33
2018-05-07T11:23:02.338Z,1.90
2018-05-07T11:25:30.715Z,1.53
2018-05-07T11:27:58.352Z,1.37
2018-05-07T11:30:25.985Z,1.60
2018-05-07T11:32:53.631Z,1.47
2018-05-07T11:35:21.263Z,2.43
2018-05-07T11:37:48.898Z,1.40
2018-05-07T11:40:16.528Z,1.63
2018-05-07T11:42:44.146Z,1.53
2018-05-07T11:45:11.784Z,1.40
2018-05-07T11:47:39.478Z,1.50
2018-05-07T11:50:07.062Z,1.40
2018-05-07T11:52:34.683Z,1.43
2018-05-07T11:55:02.303Z,1.60
2018-05-07T11:57:30.863Z,1.53
2018-05-07T11:59:58.474Z,1.40
2018-05-07T12:02:26.102Z,1.50
2018-05-07T12:04:53.711Z,3.45
2018-05-07T12:07:21.347Z,1.73
2018-05-07T12:09:48.971Z,1.65
2018-05-07T12:12:17.371Z,1.48
2018-05-07T12:14:45.044Z,1.52
2018-05-07T12:17:12.693Z,1.60
2018-05-07T12:19:40.671Z,1.70
2018-05-07T12:22:08.308Z,1.87
2018-05-07T12:24:35.923Z,1.60
2018-05-07T12:27:03.552Z,2.57
2018-05-07T12:29:31.180Z,1.67
2018-05-07T12:31:59.560Z,1.97
2018-05-07T12:34:27.942Z,1.52
2018-05-07T12:36:55.574Z,1.58
2018-05-07T12:39:23.191Z,1.50
2018-05-07T12:41:50.817Z,1.70
2018-05-07T12:44:18.439Z,2.37
2018-05-07T12:46:46.108Z,1.35
2018-05-07T12:49:13.959Z,1.27
2018-05-07T12:51:41.592Z,1.48
2018-05-07T12:54:09.208Z,1.65
2018-05-07T12:56:36.835Z,1.60
2018-05-07T12:59:04.485Z,1.70
2018-05-07T13:01:32.071Z,1.58
2018-05-07T13:04:00.465Z,1.62
2018-05-07T13:06:28.079Z,1.50
2018-05-07T13:08:55.706Z,2.03
2018-05-07T13:11:23.345Z,1.52
2018-05-07T13:13:50.947Z,1.90
2018-05-07T13:16:18.580Z,1.67
2018-05-07T13:18:46.205Z,1.48
2018-05-07T13:21:13.819Z,1.25
2018-05-07T13:23:41.438Z,1.35
2018-05-07T13:26:09.063Z,1.47
2018-05-07T13:28:37.450Z,1.60
2018-05-07T13:31:05.068Z,1.23
2018-05-07T13:33:32.698Z,1.93
2018-05-07T13:36:00.310Z,1.70
2018-05-07T13:38:27.929Z,1.43
2018-05-07T13:40:55.544Z,1.40
2018-05-07T13:43:23.165Z,1.20
2018-05-07T13:45:50.780Z,1.23
2018-05-07T13:48:18.406Z,1.60
2018-05-07T13:50:46.011Z,1.27
2018-05-07T13:53:13.639Z,1.10
2018-05-07T13:55:41.272Z,1.17
2018-05-07T13:58:08.903Z,1.30
2018-05-07T14:00:36.770Z,1.40
2018-05-07T14:03:04.435Z,1.50
2018-05-07T14:05:32.059Z,2.07
2018-05-07T14:07:59.679Z,1.40
2018-05-07T14:10:27.294Z,1.33
2018-05-07T14:12:55.191Z,1.43
2018-05-07T14:15:22.814Z,1.20
2018-05-07T14:17:50.627Z,1.37
2018-05-07T14:20:18.219Z,1.40
2018-05-07T14:22:45.844Z,1.20
2018-05-07T14:25:13.454Z,1.40
2018-05-07T14:27:41.087Z,1.30
2018-05-07T14:30:08.698Z,1.10
2018-05-07T14:32:37.088Z,1.30
2018-05-07T14:35:04.707Z,1.13
2018-05-07T14:37:32.333Z,1.30
2018-05-07T14:39:59.951Z,1.40
2018-05-07T14:42:27.591Z,1.30
2018-05-07T14:44:55.239Z,1.23
2018-05-07T14:47:22.858Z,1.30
2018-05-07T14:49:50.479Z,1.30
2018-05-07T14:52:18.099Z,1.00
2018-05-07T14:54:45.718Z,1.00
2018-05-07T14:57:13.339Z,1.10
2018-05-07T14:59:41.723Z,1.17
2018-05-07T15:02:09.575Z,1.20
2018-05-07T15:04:37.163Z,1.23
2018-05-07T15:07:04.787Z,1.10
2018-05-07T15:09:32.419Z,1.20
2018-05-07T15:12:00.039Z,1.30
2018-05-07T15:14:27.664Z,2.87
2018-05-07T15:16:55.279Z,1.37
2018-05-07T15:19:23.666Z,1.13
2018-05-07T15:21:51.292Z,1.00
2018-05-07T15:24:18.915Z,1.30
2018-05-07T15:26:46.532Z,3.23
2018-05-07T15:29:14.222Z,1.27
2018-05-07T15:31:41.786Z,1.20
2018-05-07T15:34:09.392Z,1.30
2018-05-07T15:36:37.034Z,1.23
2018-05-07T15:39:05.548Z,1.07
2018-05-07T15:41:33.162Z,1.40
2018-05-07T15:44:00.799Z,1.40
2018-05-07T15:46:28.424Z,1.13
2018-05-07T15:48:56.047Z,1.33
2018-05-07T15:51:24.060Z,1.17
2018-05-07T15:53:51.688Z,1.40
2018-05-07T15:56:19.290Z,1.40
2018-05-07T15:58:46.919Z,1.10
2018-05-07T16:01:14.535Z,1.23
2018-05-07T16:03:42.159Z,1.10
2018-05-07T16:06:09.782Z,1.13
2018-05-07T16:08:37.402Z,0.97
2018-05-07T16:11:05.018Z,1.10
2018-05-07T16:13:32.630Z,1.30
2018-05-07T16:16:00.266Z,0.90
2018-05-07T16:18:27.883Z,1.87
2018-05-07T16:20:55.601Z,1.80
2018-05-07T16:23:23.367Z,0.90
2018-05-07T16:25:50.832Z,1.37
2018-05-07T16:28:18.703Z,1.80
2018-05-07T16:30:46.283Z,1.20
2018-05-07T16:33:13.924Z,1.17
2018-05-07T16:35:41.629Z,1.00
2018-05-07T16:38:09.423Z,1.00
2018-05-07T16:40:37.086Z,1.30
2018-05-07T16:43:04.656Z,2.10
2018-05-07T16:45:32.282Z,2.93
2018-05-07T16:48:00.676Z,4.50
2018-05-07T16:50:28.291Z,3.67
2018-05-07T16:52:55.910Z,7.37
2018-05-07T16:55:24.299Z,9.87
2018-05-07T16:57:51.915Z,7.77
2018-05-07T17:00:19.874Z,12.40
2018-05-07T17:02:47.494Z,18.30
2018-05-07T17:05:15.889Z,19.93
2018-05-07T17:07:43.507Z,11.23
2018-05-07T17:10:11.532Z,9.80
2018-05-07T17:12:39.159Z,5.70
2018-05-07T17:15:06.779Z,8.03
2018-05-07T17:17:34.407Z,2.20
2018-05-07T17:20:02.082Z,2.47
2018-05-07T17:22:29.700Z,2.50
2018-05-07T17:24:57.318Z,3.47
2018-05-07T17:27:24.935Z,3.87
2018-05-07T17:29:52.556Z,2.20
2018-05-07T17:32:20.174Z,2.80
2018-05-07T17:34:47.802Z,1.57
2018-05-07T17:37:15.422Z,1.80
2018-05-07T17:39:43.185Z,2.93
2018-05-07T17:42:10.774Z,1.70
2018-05-07T17:44:50.102Z,1.30
2018-05-07T17:47:29.498Z,1.33
2018-05-07T17:49:57.116Z,1.17
2018-05-07T17:52:24.727Z,1.20
2018-05-07T17:54:52.347Z,1.27
2018-05-07T17:57:20.735Z,1.20
2018-05-07T17:59:48.364Z,1.20
2018-05-07T18:02:16.003Z,1.10
2018-05-07T18:04:43.615Z,1.20
2018-05-07T18:07:11.238Z,1.40
2018-05-07T18:09:38.867Z,1.30
2018-05-07T18:12:06.474Z,1.10
2018-05-07T18:14:34.095Z,1.47
2018-05-07T18:17:01.717Z,1.17
2018-05-07T18:19:34.948Z,1.00
2018-05-07T18:22:02.562Z,1.30
2018-05-07T18:24:30.187Z,1.10
2018-05-07T18:26:58.583Z,1.10
2018-05-07T18:29:26.204Z,1.20
2018-05-07T18:31:53.827Z,1.13
2018-05-07T18:34:21.443Z,1.50
2018-05-07T18:36:49.066Z,1.23
2018-05-07T18:39:16.941Z,1.30
2018-05-07T18:41:44.607Z,1.23
2018-05-07T18:44:12.354Z,1.30
2018-05-07T18:46:41.999Z,1.30
2018-05-07T18:49:10.214Z,1.17
2018-05-07T18:51:37.953Z,1.20
2018-05-07T18:54:06.892Z,1.10
2018-05-07T18:56:34.613Z,1.87
2018-05-07T18:59:05.004Z,1.10
2018-05-07T19:01:34.654Z,1.40
2018-05-07T19:04:02.389Z,1.40
2018-05-07T19:06:30.040Z,1.20
2018-05-07T19:08:57.676Z,1.40
2018-05-07T19:11:25.457Z,0.97
2018-05-07T19:13:53.164Z,1.40
2018-05-07T19:16:21.587Z,1.20
2018-05-07T19:18:49.281Z,1.03
2018-05-07T19:21:16.939Z,1.20
2018-05-07T19:23:44.615Z,1.30
2018-05-07T19:26:12.371Z,1.70
2018-05-07T19:28:41.042Z,1.57
2018-05-07T19:31:08.691Z,0.97
2018-05-07T19:33:36.442Z,1.60
2018-05-07T19:36:04.879Z,3.13
2018-05-07T19:38:32.534Z,1.33
2018-05-07T19:41:00.185Z,1.30
2018-05-07T19:43:27.924Z,1.27
2018-05-07T19:45:55.573Z,1.30
2018-05-07T19:48:23.386Z,1.10
2018-05-07T19:50:50.949Z,1.03
2018-05-07T19:53:18.652Z,1.33
2018-05-07T19:55:46.536Z,0.90
2018-05-07T19:58:14.006Z,3.27
2018-05-07T20:00:42.202Z,1.47
2018-05-07T20:03:09.921Z,0.97
2018-05-07T20:05:37.590Z,1.07
2018-05-07T20:08:05.232Z,1.60
2018-05-07T20:10:34.276Z,1.43
2018-05-07T20:13:02.047Z,1.47
2018-05-07T20:15:29.800Z,1.40
2018-05-07T20:17:57.649Z,1.40
2018-05-07T20:20:25.480Z,1.50
2018-05-07T20:22:58.953Z,1.20
2018-05-07T20:25:26.623Z,1.20
2018-05-07T20:27:54.289Z,1.03
2018-05-07T20:30:21.933Z,1.23
2018-05-07T20:32:49.649Z,1.10
2018-05-07T20:35:17.343Z,0.83
2018-05-07T20:37:45.013Z,1.13
2018-05-07T20:40:12.688Z,2.90
2018-05-07T20:42:40.346Z,1.20
2018-05-07T20:45:08.093Z,1.20
2018-05-07T20:47:37.519Z,1.17
2018-05-07T20:50:05.310Z,1.20
2018-05-07T20:52:33.187Z,1.00
2018-05-07T20:55:00.850Z,2.37
2018-05-07T20:57:28.481Z,1.43
2018-05-07T20:59:56.198Z,1.20
2018-05-07T21:02:23.887Z,1.20
2018-05-07T21:04:51.717Z,1.47
2018-05-07T21:07:19.361Z,1.43
2018-05-07T21:09:47.057Z,1.40
2018-05-07T21:12:14.731Z,1.33
2018-05-07T21:14:42.495Z,1.40
2018-05-07T21:17:10.179Z,1.70
2018-05-07T21:19:38.056Z,1.40
2018-05-07T21:22:06.567Z,1.50
2018-05-07T21:24:34.245Z,1.00
2018-05-07T21:27:01.995Z,1.53
2018-05-07T21:29:30.560Z,1.67
2018-05-07T21:31:58.190Z,1.27
2018-05-07T21:34:25.847Z,2.03
2018-05-07T21:36:53.543Z,1.17
2018-05-07T21:39:21.852Z,1.73
2018-05-07T21:41:49.497Z,1.30
2018-05-07T21:44:17.131Z,1.10
2018-05-07T21:46:44.803Z,1.37
2018-05-07T21:49:12.825Z,1.33
2018-05-07T21:51:40.444Z,1.87
2018-05-07T21:54:08.483Z,1.50
2018-05-07T21:56:36.123Z,1.37
2018-05-07T21:59:03.884Z,1.00
2018-05-07T22:01:31.532Z,1.70
2018-05-07T22:03:59.214Z,2.07
2018-05-07T22:06:26.819Z,1.30
2018-05-07T22:08:54.439Z,1.27
2018-05-07T22:11:22.054Z,1.50
2018-05-07T22:13:49.678Z,2.30
2018-05-07T22:16:17.291Z,2.50
2018-05-07T22:18:45.019Z,1.70
2018-05-07T22:21:12.622Z,1.50
2018-05-07T22:23:40.243Z,1.87
2018-05-07T22:26:07.960Z,1.87
2018-05-07T22:28:35.490Z,1.50
2018-05-07T22:31:03.121Z,1.30
2018-05-07T22:33:31.019Z,1.83
2018-05-07T22:35:58.639Z,1.90
2018-05-07T22:38:26.250Z,1.50
2018-05-07T22:40:53.870Z,1.40
2018-05-07T22:43:21.491Z,1.80
2018-05-07T22:45:49.098Z,1.43
2018-05-07T22:48:16.728Z,1.47
2018-05-07T22:50:44.365Z,1.73
2018-05-07T22:53:11.983Z,2.07
2018-05-07T22:55:39.607Z,2.13
2018-05-07T22:58:07.231Z,1.53
2018-05-07T23:00:34.846Z,1.20
2018-05-07T23:03:02.479Z,1.40
2018-05-07T23:05:30.267Z,1.70
2018-05-07T23:07:57.879Z,1.70
2018-05-07T23:10:25.499Z,2.10
2018-05-07T23:12:53.118Z,1.70
2018-05-07T23:15:20.738Z,1.97
2018-05-07T23:17:48.365Z,1.77
2018-05-07T23:20:15.988Z,1.53
2018-05-07T23:22:43.605Z,1.77
2018-05-07T23:25:11.227Z,1.60
2018-05-07T23:27:39.610Z,1.87
2018-05-07T23:30:07.235Z,1.60
2018-05-07T23:32:41.129Z,1.67
2018-05-07T23:35:08.755Z,1.50
2018-05-07T23:37:36.371Z,1.33
2018-05-07T23:40:03.991Z,1.40
2018-05-07T23:42:31.614Z,1.60
2018-05-07T23:44:59.483Z,1.93
2018-05-07T23:47:27.098Z,2.60
2018-05-07T23:49:54.718Z,1.80
2018-05-07T23:52:22.331Z,1.93
2018-05-07T23:54:49.948Z,1.77
2018-05-07T23:57:17.575Z,1.33
2018-05-07T23:59:45.190Z,2.27
